createdAt,value
2019-05-03T05:39:28.382Z,6.53
2019-05-03T05:40:05.195Z,7.93
2019-05-03T05:40:40.836Z,8.03
2019-05-03T05:41:15.893Z,8.97
2019-05-03T05:41:50.911Z,6.20
2019-05-03T05:42:25.978Z,6.13
2019-05-03T05:43:01.011Z,5.90
2019-05-03T05:43:36.054Z,6.80
2019-05-03T05:44:11.200Z,6.00
2019-05-03T05:44:46.577Z,5.63
2019-05-03T05:45:21.658Z,6.67
2019-05-03T05:45:58.915Z,6.13
2019-05-03T05:46:38.947Z,6.50
2019-05-03T05:47:27.858Z,8.00
2019-05-03T05:48:05.692Z,6.20
2019-05-03T05:48:50.802Z,5.83
2019-05-03T05:49:45.006Z,6.97
2019-05-03T05:50:40.775Z,5.73
2019-05-03T05:51:16.141Z,5.47
2019-05-03T05:51:52.061Z,5.60
2019-05-03T05:52:27.084Z,5.67
2019-05-03T05:53:02.295Z,5.50
2019-05-03T05:53:37.340Z,8.77
2019-05-03T05:54:14.393Z,5.80
2019-05-03T05:54:57.079Z,6.10
2019-05-03T05:55:49.948Z,6.20
2019-05-03T05:56:46.859Z,6.10
2019-05-03T05:57:39.490Z,5.37
2019-05-03T05:58:18.452Z,6.67
2019-05-03T05:58:57.082Z,6.73
2019-05-03T05:59:46.990Z,5.00
2019-05-03T06:00:41.131Z,5.20
2019-05-03T06:01:25.650Z,5.57
2019-05-03T06:02:04.881Z,5.17
2019-05-03T06:02:40.058Z,6.57
2019-05-03T06:03:15.118Z,6.17
2019-05-03T06:03:50.343Z,5.67
2019-05-03T06:04:25.418Z,5.57
2019-05-03T06:05:00.466Z,6.33
2019-05-03T06:05:35.673Z,6.70
2019-05-03T06:06:15.311Z,6.57
2019-05-03T06:07:14.897Z,7.00
2019-05-03T06:08:01.295Z,6.27
2019-05-03T06:08:54.751Z,6.83
2019-05-03T06:09:46.263Z,7.40
2019-05-03T06:10:29.627Z,6.37
2019-05-03T06:11:17.006Z,6.43
2019-05-03T06:11:56.299Z,8.53
2019-05-03T06:13:02.488Z,5.87
2019-05-03T06:13:44.367Z,5.93
2019-05-03T06:14:24.465Z,7.00
2019-05-03T06:15:04.651Z,6.73
2019-05-03T06:15:50.594Z,5.83
2019-05-03T06:16:48.142Z,7.83
2019-05-03T06:17:55.478Z,6.67
2019-05-03T06:18:37.209Z,6.07
2019-05-03T06:19:16.811Z,6.60
2019-05-03T06:20:07.264Z,5.97
2019-05-03T06:21:04.657Z,6.00
2019-05-03T06:21:47.738Z,7.87
2019-05-03T06:22:34.418Z,6.17
2019-05-03T06:23:16.996Z,8.57
2019-05-03T06:23:56.723Z,5.67
2019-05-03T06:24:35.741Z,6.27
2019-05-03T06:25:29.898Z,7.17
2019-05-03T06:26:25.296Z,9.10
2019-05-03T06:27:09.178Z,8.80
2019-05-03T06:27:44.939Z,6.43
2019-05-03T06:28:32.207Z,8.70
2019-05-03T06:29:07.544Z,8.10
2019-05-03T06:29:43.054Z,7.87
2019-05-03T06:30:26.183Z,7.40
2019-05-03T06:31:22.667Z,8.47
2019-05-03T06:32:08.103Z,6.70
2019-05-03T06:32:44.862Z,8.13
2019-05-03T06:33:19.945Z,6.80
2019-05-03T06:33:55.389Z,7.90
2019-05-03T06:34:30.542Z,6.70
2019-05-03T06:35:05.610Z,7.87
2019-05-03T06:35:40.641Z,7.50
2019-05-03T06:36:16.113Z,9.27
2019-05-03T06:36:55.232Z,9.13
2019-05-03T06:37:35.369Z,7.87
2019-05-03T06:38:10.566Z,8.47
2019-05-03T06:38:45.940Z,8.00
2019-05-03T06:39:21.273Z,7.20
2019-05-03T06:39:56.299Z,6.93
2019-05-03T06:40:31.331Z,8.10
2019-05-03T06:41:06.354Z,7.30
2019-05-03T06:41:41.381Z,7.07
2019-05-03T06:42:19.251Z,7.37
2019-05-03T06:42:57.258Z,8.77
2019-05-03T06:43:29.907Z,8.07
2019-05-03T06:44:04.948Z,6.87
2019-05-03T06:44:39.983Z,6.73
2019-05-03T06:45:15.384Z,6.87
2019-05-03T06:45:50.684Z,7.80
2019-05-03T06:46:45.606Z,6.53
2019-05-03T06:47:21.042Z,8.00
2019-05-03T06:47:56.431Z,8.57
2019-05-03T06:48:32.115Z,7.70
2019-05-03T06:49:10.050Z,7.27
2019-05-03T06:49:48.179Z,6.20
2019-05-03T06:50:27.546Z,6.80
2019-05-03T06:51:00.275Z,6.70
2019-05-03T06:51:39.921Z,6.00
2019-05-03T06:52:12.400Z,6.10
2019-05-03T06:52:47.439Z,7.30
2019-05-03T06:53:22.731Z,7.57
2019-05-03T06:53:58.091Z,6.90
2019-05-03T06:54:34.670Z,6.30
2019-05-03T06:55:10.888Z,6.93
2019-05-03T06:55:48.465Z,6.73
2019-05-03T06:56:24.968Z,6.57
2019-05-03T06:57:00.126Z,7.53
2019-05-03T06:57:40.153Z,7.57
2019-05-03T06:58:15.299Z,6.70
2019-05-03T06:58:51.343Z,5.77
2019-05-03T06:59:31.942Z,5.70
2019-05-03T07:00:21.613Z,7.83
2019-05-03T07:01:14.894Z,6.37
2019-05-03T07:01:56.155Z,6.90
2019-05-03T07:02:59.142Z,7.97
2019-05-03T07:03:41.963Z,6.27
2019-05-03T07:04:24.564Z,7.03
2019-05-03T07:04:59.995Z,7.40
2019-05-03T07:05:54.885Z,7.57
2019-05-03T07:06:40.621Z,6.20
2019-05-03T07:07:26.075Z,6.70
2019-05-03T07:08:05.227Z,6.43
2019-05-03T07:09:02.362Z,8.63
2019-05-03T07:09:45.824Z,8.57
2019-05-03T07:10:30.209Z,7.03
2019-05-03T07:11:05.392Z,7.70
2019-05-03T07:11:40.525Z,7.63
2019-05-03T07:12:15.822Z,6.45
2019-05-03T07:13:00.987Z,6.15
2019-05-03T07:13:36.040Z,7.45
2019-05-03T07:14:11.083Z,7.33
2019-05-03T07:14:46.114Z,5.20
2019-05-03T07:15:21.159Z,6.20
2019-05-03T07:15:56.278Z,5.87
2019-05-03T07:16:31.682Z,5.42
2019-05-03T07:17:06.710Z,6.50
2019-05-03T07:17:41.771Z,6.23
2019-05-03T07:18:17.103Z,5.95
2019-05-03T07:18:52.424Z,6.00
2019-05-03T07:19:27.467Z,5.92
2019-05-03T07:20:04.558Z,5.72
2019-05-03T07:21:04.888Z,5.77
2019-05-03T07:21:40.071Z,6.07
2019-05-03T07:22:15.285Z,5.50
2019-05-03T07:22:50.434Z,6.55
2019-05-03T07:23:25.479Z,6.60
2019-05-03T07:24:00.515Z,6.05
2019-05-03T07:24:40.636Z,5.40
2019-05-03T07:25:14.959Z,6.83
2019-05-03T07:25:50.493Z,6.27
2019-05-03T07:26:25.573Z,6.15
2019-05-03T07:27:00.642Z,5.83
2019-05-03T07:27:35.749Z,8.13
2019-05-03T07:28:10.794Z,5.80
2019-05-03T07:28:49.391Z,5.58
2019-05-03T07:29:22.862Z,5.80
2019-05-03T07:29:57.887Z,6.67
2019-05-03T07:30:35.125Z,6.70
2019-05-03T07:31:09.893Z,6.73
2019-05-03T07:31:44.994Z,6.95
2019-05-03T07:32:20.038Z,5.95
2019-05-03T07:33:00.178Z,6.12
2019-05-03T07:33:35.640Z,8.90
2019-05-03T07:34:10.736Z,6.15
2019-05-03T07:34:45.780Z,7.95
2019-05-03T07:35:20.813Z,7.03
2019-05-03T07:35:56.175Z,7.35
2019-05-03T07:36:31.244Z,7.00
2019-05-03T07:37:06.283Z,6.65
2019-05-03T07:37:41.654Z,7.25
2019-05-03T07:38:16.710Z,6.58
2019-05-03T07:38:52.127Z,7.15
2019-05-03T07:39:27.538Z,8.40
2019-05-03T07:40:04.629Z,7.05
2019-05-03T07:40:39.622Z,7.20
2019-05-03T07:41:14.963Z,6.97
2019-05-03T07:41:50.491Z,6.70
2019-05-03T07:42:25.720Z,6.83
2019-05-03T07:43:00.891Z,8.70
2019-05-03T07:43:36.276Z,6.83
2019-05-03T07:44:11.343Z,6.72
2019-05-03T07:44:46.388Z,7.45
2019-05-03T07:45:21.506Z,6.47
2019-05-03T07:45:56.586Z,6.30
2019-05-03T07:46:31.822Z,7.75
2019-05-03T07:47:06.938Z,6.78
2019-05-03T07:47:42.020Z,6.30
2019-05-03T07:48:17.347Z,6.08
2019-05-03T07:48:54.665Z,6.60
2019-05-03T07:49:29.513Z,7.10
2019-05-03T07:50:05.064Z,6.33
2019-05-03T07:50:41.286Z,6.90
2019-05-03T07:51:16.627Z,6.40
2019-05-03T07:51:51.680Z,6.10
2019-05-03T07:52:27.006Z,6.58
2019-05-03T07:53:02.057Z,7.08
2019-05-03T07:53:37.343Z,7.53
2019-05-03T07:54:12.499Z,6.75
2019-05-03T07:54:48.498Z,5.85
2019-05-03T07:55:42.888Z,6.45
2019-05-03T07:56:18.466Z,5.58
2019-05-03T07:56:57.602Z,6.22
2019-05-03T07:57:37.367Z,6.12
2019-05-03T07:58:15.956Z,10.00
2019-05-03T07:59:02.585Z,7.40
2019-05-03T07:59:30.491Z,6.67
2019-05-03T08:00:06.586Z,5.03
2019-05-03T08:00:42.015Z,5.87
2019-05-03T08:01:22.266Z,5.65
2019-05-03T08:01:57.929Z,5.03
2019-05-03T08:02:33.312Z,6.40
2019-05-03T08:03:08.355Z,5.28
2019-05-03T08:03:45.127Z,4.83
2019-05-03T08:04:22.083Z,4.92
2019-05-03T08:04:57.117Z,4.65
2019-05-03T08:05:32.163Z,5.12
2019-05-03T08:06:07.228Z,5.72
2019-05-03T08:06:44.447Z,6.50
2019-05-03T08:07:22.468Z,4.50
2019-05-03T08:07:56.096Z,4.78
2019-05-03T08:08:31.446Z,6.58
2019-05-03T08:09:09.657Z,4.70
2019-05-03T08:09:45.315Z,4.30
2019-05-03T08:10:20.466Z,4.33
2019-05-03T08:10:55.516Z,4.00
2019-05-03T08:11:30.562Z,5.55
2019-05-03T08:12:05.588Z,3.83
2019-05-03T08:12:40.618Z,4.12
2019-05-03T08:13:15.998Z,5.22
2019-05-03T08:13:51.326Z,6.58
2019-05-03T08:14:26.414Z,4.10
2019-05-03T08:15:01.511Z,4.58
2019-05-03T08:15:36.572Z,4.00
2019-05-03T08:16:11.625Z,4.37
2019-05-03T08:16:46.678Z,5.17
2019-05-03T08:17:21.779Z,5.83
2019-05-03T08:17:56.824Z,6.70
2019-05-03T08:18:32.236Z,4.17
2019-05-03T08:19:08.571Z,4.83
2019-05-03T08:19:44.752Z,4.87
2019-05-03T08:20:19.951Z,5.33
2019-05-03T08:20:55.663Z,6.80
2019-05-03T08:21:30.914Z,5.78
2019-05-03T08:22:05.973Z,4.80
2019-05-03T08:22:41.058Z,5.28
2019-05-03T08:23:26.789Z,5.10
2019-05-03T08:23:53.215Z,5.85
2019-05-03T08:24:28.830Z,5.12
2019-05-03T08:25:05.422Z,4.80
2019-05-03T08:25:40.590Z,3.40
2019-05-03T08:26:15.890Z,3.90
2019-05-03T08:26:50.930Z,5.40
2019-05-03T08:27:26.236Z,4.50
2019-05-03T08:28:01.382Z,5.05
2019-05-03T08:28:36.427Z,5.40
2019-05-03T08:29:16.101Z,5.92
2019-05-03T08:29:48.456Z,4.72
2019-05-03T08:30:29.298Z,6.10
2019-05-03T08:31:15.124Z,4.83
2019-05-03T08:32:04.957Z,4.42
2019-05-03T08:32:51.240Z,3.05
2019-05-03T08:33:44.793Z,3.77
2019-05-03T08:34:25.874Z,2.98
2019-05-03T08:35:35.682Z,4.15
2019-05-03T08:36:10.805Z,5.37
2019-05-03T08:36:57.184Z,4.53
2019-05-03T08:37:42.341Z,3.90
2019-05-03T08:38:17.394Z,3.90
2019-05-03T08:38:52.466Z,5.87
2019-05-03T08:39:27.594Z,3.92
2019-05-03T08:40:02.979Z,3.98
2019-05-03T08:40:45.376Z,2.95
2019-05-03T08:41:21.870Z,4.47
2019-05-03T08:41:58.862Z,4.03
2019-05-03T08:42:35.188Z,5.05
2019-05-03T08:43:10.578Z,3.35
2019-05-03T08:43:45.684Z,3.12
2019-05-03T08:44:21.087Z,4.12
2019-05-03T08:44:56.151Z,3.80
2019-05-03T08:45:31.491Z,3.72
2019-05-03T08:46:06.920Z,4.90
2019-05-03T08:46:41.962Z,5.12
2019-05-03T08:47:17.018Z,2.87
2019-05-03T08:47:52.371Z,4.75
2019-05-03T08:48:27.435Z,3.70
2019-05-03T08:49:02.505Z,3.55
2019-05-03T08:49:37.859Z,2.85
2019-05-03T08:50:16.319Z,4.05
2019-05-03T08:50:49.914Z,3.08
2019-05-03T08:51:25.288Z,4.58
2019-05-03T08:52:00.346Z,3.27
2019-05-03T08:52:35.448Z,2.58
2019-05-03T08:53:10.919Z,3.25
2019-05-03T08:53:46.133Z,3.40
2019-05-03T08:54:21.498Z,3.60
2019-05-03T08:54:56.799Z,2.90
2019-05-03T08:55:31.875Z,2.35
2019-05-03T08:56:07.157Z,3.62
2019-05-03T08:56:42.508Z,3.77
2019-05-03T08:57:17.859Z,3.55
2019-05-03T08:57:55.152Z,3.17
2019-05-03T08:58:30.236Z,3.37
2019-05-03T08:59:05.305Z,3.87
2019-05-03T08:59:40.332Z,3.30
2019-05-03T09:00:17.268Z,2.90
2019-05-03T09:00:52.323Z,3.67
2019-05-03T09:01:27.447Z,3.40
2019-05-03T09:02:03.607Z,3.83
2019-05-03T09:02:39.323Z,3.15
2019-05-03T09:03:14.539Z,3.40
2019-05-03T09:03:49.745Z,3.15
2019-05-03T09:04:36.146Z,4.33
2019-05-03T09:05:01.767Z,2.92
2019-05-03T09:05:37.580Z,3.27
2019-05-03T09:06:15.449Z,2.00
2019-05-03T09:06:50.667Z,4.40
2019-05-03T09:07:25.743Z,1.98
2019-05-03T09:08:01.096Z,2.20
2019-05-03T09:08:36.151Z,3.40
2019-05-03T09:09:22.920Z,3.00
2019-05-03T09:10:16.765Z,3.45
2019-05-03T09:10:59.431Z,2.10
2019-05-03T09:11:36.841Z,4.62
2019-05-03T09:12:11.310Z,3.10
2019-05-03T09:13:06.949Z,2.83
2019-05-03T09:13:55.800Z,2.42
2019-05-03T09:14:41.496Z,3.40
2019-05-03T09:15:08.066Z,4.53
2019-05-03T09:15:44.600Z,3.47
2019-05-03T09:16:19.906Z,2.75
2019-05-03T09:16:55.565Z,3.12
2019-05-03T09:17:30.716Z,3.10
2019-05-03T09:18:05.795Z,3.85
2019-05-03T09:18:40.850Z,2.37
2019-05-03T09:19:16.259Z,2.58
2019-05-03T09:19:51.375Z,3.42
2019-05-03T09:20:26.425Z,6.40
2019-05-03T09:21:01.455Z,4.28
2019-05-03T09:21:36.507Z,2.55
2019-05-03T09:22:12.096Z,4.87
2019-05-03T09:22:47.407Z,3.37
2019-05-03T09:23:23.968Z,3.17
2019-05-03T09:24:00.404Z,2.33
2019-05-03T09:24:35.466Z,4.00
2019-05-03T09:25:10.492Z,1.70
2019-05-03T09:25:45.943Z,2.25
2019-05-03T09:26:21.139Z,3.42
2019-05-03T09:26:56.306Z,3.70
2019-05-03T09:27:31.684Z,2.92
2019-05-03T09:28:06.723Z,3.05
2019-05-03T09:28:41.783Z,2.20
2019-05-03T09:29:16.812Z,2.90
2019-05-03T09:29:51.866Z,2.77
2019-05-03T09:30:26.911Z,2.25
2019-05-03T09:31:04.531Z,2.62
2019-05-03T09:31:39.398Z,3.35
2019-05-03T09:32:14.789Z,2.83
2019-05-03T09:32:50.138Z,4.00
2019-05-03T09:33:25.202Z,3.60
2019-05-03T09:34:00.269Z,1.82
2019-05-03T09:34:35.338Z,3.80
2019-05-03T09:35:11.171Z,2.60
2019-05-03T09:35:46.474Z,3.22
2019-05-03T09:36:22.094Z,2.83
2019-05-03T09:36:57.154Z,4.92
2019-05-03T09:37:32.183Z,2.85
2019-05-03T09:38:07.359Z,2.92
2019-05-03T09:38:42.416Z,2.87
2019-05-03T09:39:17.446Z,2.85
2019-05-03T09:39:52.482Z,4.30
2019-05-03T09:40:27.540Z,3.70
2019-05-03T09:41:02.592Z,4.40
2019-05-03T09:41:37.954Z,2.22
2019-05-03T09:42:14.950Z,3.17
2019-05-03T09:42:50.114Z,2.92
2019-05-03T09:43:25.455Z,2.33
2019-05-03T09:44:00.486Z,4.47
2019-05-03T09:44:35.576Z,2.25
2019-05-03T09:45:10.690Z,2.72
2019-05-03T09:45:45.933Z,2.95
2019-05-03T09:46:26.690Z,2.87
2019-05-03T09:47:01.905Z,2.58
2019-05-03T09:47:37.043Z,3.95
2019-05-03T09:48:12.143Z,6.17
2019-05-03T09:48:47.235Z,3.22
2019-05-03T09:49:22.723Z,3.42
2019-05-03T09:49:57.768Z,3.02
2019-05-03T09:50:35.872Z,3.67
2019-05-03T09:51:10.799Z,4.37
2019-05-03T09:51:45.871Z,3.27
2019-05-03T09:52:21.083Z,3.60
2019-05-03T09:52:56.170Z,5.08
2019-05-03T09:53:35.541Z,3.70
2019-05-03T09:54:18.947Z,3.90
2019-05-03T09:54:55.558Z,3.80
2019-05-03T09:55:35.453Z,3.12
2019-05-03T09:56:12.006Z,3.33
2019-05-03T09:57:00.530Z,2.70
2019-05-03T09:57:37.223Z,2.50
2019-05-03T09:58:12.547Z,2.72
2019-05-03T09:58:47.579Z,3.35
2019-05-03T09:59:22.638Z,3.22
2019-05-03T10:00:00.151Z,2.67
2019-05-03T10:00:34.869Z,3.92
2019-05-03T10:01:09.994Z,2.45
2019-05-03T10:01:45.642Z,4.65
2019-05-03T10:02:21.039Z,3.85
2019-05-03T10:02:56.090Z,3.20
2019-05-03T10:03:31.420Z,3.22
2019-05-03T10:04:06.484Z,2.40
2019-05-03T10:04:41.524Z,2.72
2019-05-03T10:05:16.598Z,2.35
2019-05-03T10:05:51.638Z,3.55
2019-05-03T10:06:26.690Z,2.45
2019-05-03T10:07:02.063Z,3.27
2019-05-03T10:07:37.209Z,2.50
2019-05-03T10:08:12.251Z,2.35
2019-05-03T10:08:47.343Z,2.05
2019-05-03T10:09:22.381Z,2.42
2019-05-03T10:09:57.431Z,3.12
2019-05-03T10:10:51.556Z,2.50
2019-05-03T10:11:27.654Z,3.47
2019-05-03T10:12:05.511Z,4.17
2019-05-03T10:12:40.714Z,4.35
2019-05-03T10:13:23.195Z,2.75
2019-05-03T10:13:52.525Z,4.53
2019-05-03T10:14:27.610Z,4.37
2019-05-03T10:15:02.742Z,3.02
2019-05-03T10:15:41.840Z,3.27
2019-05-03T10:16:16.935Z,3.47
2019-05-03T10:17:10.384Z,3.33
2019-05-03T10:17:57.028Z,3.62
2019-05-03T10:18:32.059Z,3.62
2019-05-03T10:19:07.107Z,3.87
2019-05-03T10:19:42.134Z,4.45
2019-05-03T10:20:17.963Z,3.10
2019-05-03T10:20:53.083Z,3.77
2019-05-03T10:21:29.881Z,2.77
2019-05-03T10:22:05.840Z,3.02
2019-05-03T10:22:41.110Z,4.58
2019-05-03T10:23:37.771Z,5.08
2019-05-03T10:24:12.924Z,3.08
2019-05-03T10:24:47.951Z,3.00
2019-05-03T10:25:24.821Z,2.10
2019-05-03T10:26:00.471Z,3.42
2019-05-03T10:26:35.658Z,3.95
2019-05-03T10:27:11.008Z,4.33
2019-05-03T10:27:46.298Z,4.37
2019-05-03T10:28:21.431Z,4.78
2019-05-03T10:28:56.762Z,4.12
2019-05-03T10:29:32.114Z,3.62
2019-05-03T10:30:12.574Z,3.12
2019-05-03T10:30:45.045Z,3.20
2019-05-03T10:31:25.166Z,2.58
2019-05-03T10:32:06.700Z,3.50
2019-05-03T10:32:44.943Z,3.08
2019-05-03T10:33:26.081Z,2.40
2019-05-03T10:34:02.556Z,2.08
2019-05-03T10:34:37.625Z,3.27
2019-05-03T10:35:14.994Z,2.80
2019-05-03T10:35:49.652Z,2.12
2019-05-03T10:36:25.767Z,3.60
2019-05-03T10:37:00.803Z,3.15
2019-05-03T10:37:36.048Z,2.80
2019-05-03T10:38:11.192Z,2.60
2019-05-03T10:38:46.345Z,5.03
2019-05-03T10:39:21.462Z,3.45
2019-05-03T10:39:56.574Z,5.70
2019-05-03T10:40:31.703Z,3.15
2019-05-03T10:41:06.849Z,3.05
2019-05-03T10:41:41.975Z,3.60
2019-05-03T10:42:17.022Z,3.90
2019-05-03T10:42:52.079Z,3.17
2019-05-03T10:43:27.147Z,3.85
2019-05-03T10:44:02.174Z,2.75
2019-05-03T10:44:38.109Z,2.40
2019-05-03T10:45:15.127Z,3.58
2019-05-03T10:45:50.311Z,2.05
2019-05-03T10:46:25.619Z,3.77
2019-05-03T10:47:01.638Z,2.92
2019-05-03T10:47:36.682Z,2.75
2019-05-03T10:48:12.014Z,1.98
2019-05-03T10:48:47.047Z,3.12
2019-05-03T10:49:22.083Z,2.27
2019-05-03T10:49:57.131Z,2.85
2019-05-03T10:50:34.242Z,2.42
2019-05-03T10:51:09.431Z,3.00
2019-05-03T10:51:49.239Z,3.77
2019-05-03T10:52:28.779Z,3.90
2019-05-03T10:53:22.910Z,5.08
2019-05-03T10:53:59.725Z,2.17
2019-05-03T10:54:35.894Z,2.08
2019-05-03T10:55:12.370Z,4.83
2019-05-03T10:56:20.225Z,2.30
2019-05-03T10:57:01.043Z,3.15
2019-05-03T10:57:38.188Z,2.95
2019-05-03T10:58:18.603Z,2.55
2019-05-03T10:59:05.980Z,2.40
2019-05-03T10:59:41.053Z,2.83
2019-05-03T11:00:43.603Z,4.45
2019-05-03T11:00:56.709Z,3.95
2019-05-03T11:01:39.982Z,2.90
2019-05-03T11:02:41.471Z,1.92
2019-05-03T11:03:16.732Z,2.67
2019-05-03T11:03:51.800Z,1.82
2019-05-03T11:04:28.252Z,1.52
2019-05-03T11:05:05.137Z,2.70
2019-05-03T11:05:40.358Z,3.00
2019-05-03T11:06:15.543Z,2.65
2019-05-03T11:06:50.616Z,2.90
2019-05-03T11:07:25.836Z,2.25
2019-05-03T11:08:00.910Z,2.87
2019-05-03T11:08:35.960Z,2.70
2019-05-03T11:09:11.304Z,3.12
2019-05-03T11:09:49.799Z,3.05
2019-05-03T11:10:25.171Z,2.47
2019-05-03T11:11:00.128Z,2.83
2019-05-03T11:11:35.380Z,2.25
2019-05-03T11:12:10.614Z,2.75
2019-05-03T11:12:45.651Z,2.47
2019-05-03T11:13:20.701Z,3.10
2019-05-03T11:13:55.750Z,2.77
2019-05-03T11:14:31.323Z,3.17
2019-05-03T11:15:06.437Z,4.20
2019-05-03T11:15:41.567Z,2.40
2019-05-03T11:16:16.617Z,3.85
2019-05-03T11:16:51.665Z,1.65
2019-05-03T11:17:26.724Z,2.37
2019-05-03T11:18:02.057Z,2.37
2019-05-03T11:18:37.102Z,2.33
2019-05-03T11:19:12.166Z,2.17
2019-05-03T11:19:47.239Z,1.67
2019-05-03T11:20:34.982Z,2.87
2019-05-03T11:21:10.388Z,1.42
2019-05-03T11:21:45.770Z,2.92
2019-05-03T11:22:20.843Z,2.42
2019-05-03T11:22:55.879Z,2.60
2019-05-03T11:23:30.979Z,2.17
2019-05-03T11:24:06.057Z,2.02
2019-05-03T11:24:41.116Z,2.80
2019-05-03T11:25:16.154Z,4.00
2019-05-03T11:25:51.195Z,2.27
2019-05-03T11:26:26.399Z,1.45
2019-05-03T11:27:03.871Z,3.12
2019-05-03T11:27:47.149Z,2.52
2019-05-03T11:28:25.085Z,2.33
2019-05-03T11:29:00.638Z,2.80
2019-05-03T11:29:35.768Z,2.12
2019-05-03T11:30:10.883Z,2.25
2019-05-03T11:30:53.616Z,1.77
2019-05-03T11:31:40.323Z,2.05
2019-05-03T11:32:25.081Z,2.70
2019-05-03T11:33:06.887Z,2.02
2019-05-03T11:33:42.100Z,2.10
2019-05-03T11:34:18.335Z,1.90
2019-05-03T11:35:25.758Z,1.70
2019-05-03T11:36:09.153Z,4.03
2019-05-03T11:37:08.188Z,2.42
2019-05-03T11:37:48.591Z,2.08
2019-05-03T11:38:26.073Z,3.52
2019-05-03T11:39:01.190Z,2.70
2019-05-03T11:39:38.122Z,2.50
2019-05-03T11:40:15.555Z,1.70
2019-05-03T11:40:50.349Z,2.92
2019-05-03T11:41:32.161Z,1.85
2019-05-03T11:42:04.662Z,2.72
2019-05-03T11:42:39.832Z,3.58
2019-05-03T11:43:15.240Z,1.90
2019-05-03T11:43:50.493Z,2.50
2019-05-03T11:44:40.802Z,2.80
2019-05-03T11:45:15.922Z,5.85
2019-05-03T11:45:51.088Z,2.08
2019-05-03T11:46:26.154Z,2.22
2019-05-03T11:47:01.267Z,2.15
2019-05-03T11:47:36.331Z,2.10
2019-05-03T11:48:11.369Z,1.45
2019-05-03T11:48:46.429Z,3.40
2019-05-03T11:49:21.478Z,2.95
2019-05-03T11:49:56.548Z,2.77
2019-05-03T11:50:31.635Z,2.15
2019-05-03T11:51:06.750Z,2.58
2019-05-03T11:51:41.781Z,4.25
2019-05-03T11:52:17.590Z,2.45
2019-05-03T11:52:55.243Z,2.20
2019-05-03T11:53:29.774Z,2.98
2019-05-03T11:54:05.860Z,2.40
2019-05-03T11:54:41.089Z,1.85
2019-05-03T11:55:16.204Z,2.08
2019-05-03T11:55:51.288Z,3.02
2019-05-03T11:56:26.868Z,1.98
2019-05-03T11:57:05.082Z,2.40
2019-05-03T11:57:40.231Z,3.52
2019-05-03T11:58:22.580Z,3.17
2019-05-03T11:58:57.910Z,3.47
2019-05-03T11:59:34.499Z,3.08
2019-05-03T12:00:11.398Z,2.95
2019-05-03T12:00:47.570Z,2.90
2019-05-03T12:01:28.445Z,4.42
2019-05-03T12:02:12.051Z,2.67
2019-05-03T12:02:55.458Z,2.35
2019-05-03T12:03:36.500Z,2.60
2019-05-03T12:04:11.609Z,2.00
2019-05-03T12:04:46.988Z,2.60
2019-05-03T12:05:26.918Z,2.15
2019-05-03T12:06:01.961Z,2.08
2019-05-03T12:06:37.069Z,1.80
2019-05-03T12:07:15.995Z,1.70
2019-05-03T12:07:51.795Z,2.37
2019-05-03T12:08:27.169Z,2.17
2019-05-03T12:09:02.206Z,4.15
2019-05-03T12:09:38.914Z,2.45
2019-05-03T12:10:29.824Z,1.87
2019-05-03T12:10:57.892Z,2.37
2019-05-03T12:11:29.571Z,2.67
2019-05-03T12:12:05.010Z,2.27
2019-05-03T12:12:44.546Z,2.47
2019-05-03T12:13:38.749Z,3.35
2019-05-03T12:14:15.409Z,2.00
2019-05-03T12:14:50.966Z,2.62
2019-05-03T12:15:26.573Z,3.20
2019-05-03T12:16:14.572Z,2.90
2019-05-03T12:17:11.979Z,3.10
2019-05-03T12:17:28.408Z,3.70
2019-05-03T12:18:01.077Z,2.12
2019-05-03T12:18:48.921Z,2.27
2019-05-03T12:19:17.942Z,2.10
2019-05-03T12:19:52.531Z,2.30
2019-05-03T12:20:30.006Z,2.08
2019-05-03T12:21:08.154Z,3.37
2019-05-03T12:21:42.555Z,2.75
2019-05-03T12:22:18.518Z,3.17
2019-05-03T12:22:54.381Z,3.62
2019-05-03T12:23:31.875Z,3.00
2019-05-03T12:24:07.064Z,2.27
2019-05-03T12:24:45.705Z,3.90
2019-05-03T12:25:21.256Z,2.20
2019-05-03T12:25:57.802Z,2.37
2019-05-03T12:26:42.575Z,3.27
2019-05-03T12:27:10.233Z,2.08
2019-05-03T12:27:45.335Z,2.67
2019-05-03T12:28:20.597Z,3.20
2019-05-03T12:28:56.870Z,4.17
2019-05-03T12:29:35.272Z,3.40
2019-05-03T12:30:10.930Z,3.02
2019-05-03T12:30:46.007Z,3.72
2019-05-03T12:31:31.825Z,2.33
2019-05-03T12:31:57.903Z,1.80
2019-05-03T12:32:34.522Z,3.05
2019-05-03T12:33:09.870Z,2.40
2019-05-03T12:33:45.973Z,2.27
2019-05-03T12:34:21.344Z,4.60
2019-05-03T12:34:56.473Z,4.37
2019-05-03T12:35:31.554Z,3.30
2019-05-03T12:36:06.674Z,2.25
2019-05-03T12:36:41.793Z,3.37
2019-05-03T12:37:17.237Z,1.72
2019-05-03T12:38:05.542Z,2.98
2019-05-03T12:38:40.950Z,2.87
2019-05-03T12:39:26.776Z,2.92
2019-05-03T12:39:54.869Z,2.45
2019-05-03T12:40:30.317Z,2.75
2019-05-03T12:41:05.772Z,1.90
2019-05-03T12:41:41.963Z,4.30
2019-05-03T12:42:18.784Z,2.02
2019-05-03T12:42:55.214Z,2.22
2019-05-03T12:43:30.587Z,1.65
2019-05-03T12:44:05.638Z,3.47
2019-05-03T12:44:41.995Z,3.55
2019-05-03T12:45:17.074Z,3.27
2019-05-03T12:45:52.417Z,2.33
2019-05-03T12:46:27.473Z,3.77
2019-05-03T12:47:02.921Z,2.27
2019-05-03T12:47:39.367Z,3.17
2019-05-03T12:48:15.495Z,3.22
2019-05-03T12:48:50.858Z,3.35
2019-05-03T12:49:25.928Z,3.25
2019-05-03T12:50:00.987Z,3.05
2019-05-03T12:50:36.544Z,3.92
2019-05-03T12:51:12.103Z,2.25
2019-05-03T12:51:47.883Z,3.05
2019-05-03T12:52:26.240Z,2.52
2019-05-03T12:53:00.085Z,3.20
2019-05-03T12:53:35.377Z,2.80
2019-05-03T12:54:10.822Z,2.20
2019-05-03T12:54:46.873Z,2.77
2019-05-03T12:55:24.620Z,2.92
2019-05-03T12:55:59.211Z,3.47
2019-05-03T12:56:35.809Z,5.10
2019-05-03T12:57:11.050Z,3.83
2019-05-03T12:57:46.124Z,2.50
2019-05-03T12:58:25.292Z,3.25
2019-05-03T12:59:17.923Z,3.85
2019-05-03T13:00:01.513Z,2.40
2019-05-03T13:01:05.072Z,3.40
2019-05-03T13:01:59.345Z,2.47
2019-05-03T13:02:47.785Z,2.33
2019-05-03T13:03:34.580Z,2.83
2019-05-03T13:04:15.307Z,2.00
2019-05-03T13:04:52.033Z,2.52
2019-05-03T13:05:27.471Z,2.75
2019-05-03T13:06:06.775Z,3.00
2019-05-03T13:06:42.202Z,2.40
2019-05-03T13:07:26.350Z,2.22
2019-05-03T13:08:25.899Z,2.10
2019-05-03T13:09:01.304Z,2.77
2019-05-03T13:09:37.951Z,2.92
2019-05-03T13:10:13.175Z,3.42
2019-05-03T13:10:48.298Z,3.10
2019-05-03T13:11:25.150Z,2.80
2019-05-03T13:12:00.355Z,2.40
2019-05-03T13:12:49.102Z,3.72
2019-05-03T13:13:14.523Z,3.52
2019-05-03T13:13:49.375Z,3.87
2019-05-03T13:14:25.011Z,2.60
2019-05-03T13:15:00.113Z,3.17
2019-05-03T13:15:36.656Z,3.45
2019-05-03T13:16:15.295Z,3.55
2019-05-03T13:16:51.047Z,2.87
2019-05-03T13:17:36.572Z,2.58
2019-05-03T13:18:11.728Z,4.95
2019-05-03T13:18:47.116Z,4.35
2019-05-03T13:19:22.583Z,3.72
2019-05-03T13:19:58.917Z,2.85
2019-05-03T13:20:35.878Z,2.98
2019-05-03T13:21:11.145Z,3.70
2019-05-03T13:21:46.628Z,2.98
2019-05-03T13:22:22.086Z,3.58
2019-05-03T13:22:57.401Z,3.12
2019-05-03T13:23:35.174Z,3.45
2019-05-03T13:24:21.878Z,2.60
2019-05-03T13:24:46.382Z,3.92
2019-05-03T13:25:22.016Z,2.75
2019-05-03T13:25:58.005Z,3.08
2019-05-03T13:26:35.086Z,3.10
2019-05-03T13:27:10.614Z,2.20
2019-05-03T13:27:46.402Z,3.10
2019-05-03T13:28:21.668Z,2.80
2019-05-03T13:28:59.585Z,3.37
2019-05-03T13:29:34.812Z,3.12
2019-05-03T13:30:10.154Z,4.17
2019-05-03T13:30:45.418Z,2.40
2019-05-03T13:31:21.145Z,3.65
2019-05-03T13:32:01.783Z,3.17
2019-05-03T13:32:34.992Z,4.62
2019-05-03T13:33:10.316Z,3.02
2019-05-03T13:33:45.966Z,3.60
2019-05-03T13:34:21.069Z,3.00
2019-05-03T13:34:56.699Z,2.77
2019-05-03T13:35:35.189Z,2.72
2019-05-03T13:36:10.382Z,2.60
2019-05-03T13:36:45.812Z,3.70
2019-05-03T13:37:21.433Z,2.25
2019-05-03T13:37:57.145Z,2.52
2019-05-03T13:38:32.251Z,2.90
2019-05-03T13:39:13.272Z,3.40
2019-05-03T13:39:46.568Z,2.80
2019-05-03T13:40:21.674Z,2.65
2019-05-03T13:40:56.811Z,2.20
2019-05-03T13:41:31.880Z,2.60
2019-05-03T13:42:06.914Z,2.40
2019-05-03T13:42:54.184Z,3.20
2019-05-03T13:43:19.060Z,3.15
2019-05-03T13:43:54.841Z,4.35
2019-05-03T13:44:30.201Z,4.75
2019-05-03T13:45:05.627Z,3.47
2019-05-03T13:45:40.719Z,2.50
2019-05-03T13:46:15.842Z,2.47
2019-05-03T13:46:52.095Z,2.67
2019-05-03T13:47:27.177Z,4.20
2019-05-03T13:48:04.843Z,3.27
2019-05-03T13:48:45.416Z,3.17
2019-05-03T13:49:16.188Z,5.78
2019-05-03T13:49:51.250Z,3.02
2019-05-03T13:50:26.330Z,3.02
2019-05-03T13:51:01.412Z,3.58
2019-05-03T13:51:36.510Z,2.62
2019-05-03T13:52:11.878Z,3.20
2019-05-03T13:52:46.935Z,3.25
2019-05-03T13:53:22.051Z,2.70
2019-05-03T13:53:57.162Z,2.90
2019-05-03T13:54:32.365Z,3.08
2019-05-03T13:55:07.780Z,5.28
2019-05-03T13:55:44.515Z,4.83
2019-05-03T13:56:19.791Z,3.25
2019-05-03T13:56:55.342Z,2.52
2019-05-03T13:57:30.646Z,2.90
2019-05-03T13:58:06.059Z,2.95
2019-05-03T13:58:41.201Z,2.47
2019-05-03T13:59:21.730Z,3.05
2019-05-03T13:59:54.954Z,2.50
2019-05-03T14:00:29.831Z,3.02